sensor_id;sensor_type;location;lat;lon;timestamp;temperature;humidity
19256;DHT22;9762;52.490;13.410;2022-09-24T00:00:43;16.30;78.90
19256;DHT22;9762;52.490;13.410;2022-09-24T00:03:09;16.30;79.00
19256;DHT22;9762;52.490;13.410;2022-09-24T00:05:39;16.30;79.10
19256;DHT22;9762;52.490;13.410;2022-09-24T00:08:06;16.30;79.20
19256;DHT22;9762;52.490;13.410;2022-09-24T00:10:36;16.30;79.30
19256;DHT22;9762;52.490;13.410;2022-09-24T00:13:02;16.30;79.40
19256;DHT22;9762;52.490;13.410;2022-09-24T00:15:28;16.20;79.40
19256;DHT22;9762;52.490;13.410;2022-09-24T00:17:53;16.20;79.50
19256;DHT22;9762;52.490;13.410;2022-09-24T00:20:19;16.20;79.60
19256;DHT22;9762;52.490;13.410;2022-09-24T00:22:46;16.20;79.80
19256;DHT22;9762;52.490;13.410;2022-09-24T00:25:12;16.20;79.90
19256;DHT22;9762;52.490;13.410;2022-09-24T00:27:56;16.20;80.10
19256;DHT22;9762;52.490;13.410;2022-09-24T00:30:21;16.10;80.10
19256;DHT22;9762;52.490;13.410;2022-09-24T00:32:46;16.20;80.30
19256;DHT22;9762;52.490;13.410;2022-09-24T00:35:12;16.10;80.40
19256;DHT22;9762;52.490;13.410;2022-09-24T00:37:38;16.10;80.60
19256;DHT22;9762;52.490;13.410;2022-09-24T00:40:03;16.10;80.60
19256;DHT22;9762;52.490;13.410;2022-09-24T00:42:30;16.10;80.70
19256;DHT22;9762;52.490;13.410;2022-09-24T00:44:56;16.10;81.00
19256;DHT22;9762;52.490;13.410;2022-09-24T00:50:17;16.00;82.30
19256;DHT22;9762;52.490;13.410;2022-09-24T00:55:33;16.00;82.10
19256;DHT22;9762;52.490;13.410;2022-09-24T00:58:02;16.00;82.40
19256;DHT22;9762;52.490;13.410;2022-09-24T01:00:28;15.90;82.60
19256;DHT22;9762;52.490;13.410;2022-09-24T01:02:59;15.90;82.70
19256;DHT22;9762;52.490;13.410;2022-09-24T01:05:26;15.90;82.90
19256;DHT22;9762;52.490;13.410;2022-09-24T01:07:52;15.90;82.90
19256;DHT22;9762;52.490;13.410;2022-09-24T01:10:22;15.90;82.90
19256;DHT22;9762;52.490;13.410;2022-09-24T01:16:23;15.90;83.30
19256;DHT22;9762;52.490;13.410;2022-09-24T01:21:57;15.80;83.30
19256;DHT22;9762;52.490;13.410;2022-09-24T01:24:34;15.80;83.30
19256;DHT22;9762;52.490;13.410;2022-09-24T01:27:12;15.80;83.50
19256;DHT22;9762;52.490;13.410;2022-09-24T01:32:43;15.80;83.80
19256;DHT22;9762;52.490;13.410;2022-09-24T01:35:22;15.80;83.70
19256;DHT22;9762;52.490;13.410;2022-09-24T01:37:56;15.80;83.90
19256;DHT22;9762;52.490;13.410;2022-09-24T01:40:24;15.70;84.00
19256;DHT22;9762;52.490;13.410;2022-09-24T01:42:52;15.80;84.20
19256;DHT22;9762;52.490;13.410;2022-09-24T01:45:20;15.70;84.20
19256;DHT22;9762;52.490;13.410;2022-09-24T01:47:46;15.70;84.30
19256;DHT22;9762;52.490;13.410;2022-09-24T01:50:15;15.70;84.30
19256;DHT22;9762;52.490;13.410;2022-09-24T01:52:59;15.80;84.40
19256;DHT22;9762;52.490;13.410;2022-09-24T01:55:29;15.70;84.30
19256;DHT22;9762;52.490;13.410;2022-09-24T01:58:02;15.70;84.50
19256;DHT22;9762;52.490;13.410;2022-09-24T02:00:29;15.80;84.50
19256;DHT22;9762;52.490;13.410;2022-09-24T02:03:07;15.80;84.50
19256;DHT22;9762;52.490;13.410;2022-09-24T02:05:43;15.80;84.50
19256;DHT22;9762;52.490;13.410;2022-09-24T02:08:17;15.70;84.70
19256;DHT22;9762;52.490;13.410;2022-09-24T02:10:55;15.70;84.70
19256;DHT22;9762;52.490;13.410;2022-09-24T02:13:24;15.70;84.80
19256;DHT22;9762;52.490;13.410;2022-09-24T02:15:53;15.80;85.00
19256;DHT22;9762;52.490;13.410;2022-09-24T02:18:24;15.70;85.00
19256;DHT22;9762;52.490;13.410;2022-09-24T02:20:52;15.70;85.10
19256;DHT22;9762;52.490;13.410;2022-09-24T02:23:19;15.70;85.40
19256;DHT22;9762;52.490;13.410;2022-09-24T02:25:52;15.70;85.60
19256;DHT22;9762;52.490;13.410;2022-09-24T02:28:19;15.70;85.60
19256;DHT22;9762;52.490;13.410;2022-09-24T02:30:52;15.70;85.60
19256;DHT22;9762;52.490;13.410;2022-09-24T02:33:20;15.70;85.50
19256;DHT22;9762;52.490;13.410;2022-09-24T02:36:07;15.80;85.90
19256;DHT22;9762;52.490;13.410;2022-09-24T02:38:33;15.80;86.10
19256;DHT22;9762;52.490;13.410;2022-09-24T02:40:58;15.80;86.10
19256;DHT22;9762;52.490;13.410;2022-09-24T02:43:24;15.80;86.00
19256;DHT22;9762;52.490;13.410;2022-09-24T02:45:50;15.80;86.10
19256;DHT22;9762;52.490;13.410;2022-09-24T02:48:16;15.80;86.10
19256;DHT22;9762;52.490;13.410;2022-09-24T02:50:41;15.80;86.20
19256;DHT22;9762;52.490;13.410;2022-09-24T02:53:07;15.80;86.20
19256;DHT22;9762;52.490;13.410;2022-09-24T02:55:32;15.80;86.30
19256;DHT22;9762;52.490;13.410;2022-09-24T02:57:58;15.80;86.50
19256;DHT22;9762;52.490;13.410;2022-09-24T03:00:24;15.80;86.70
19256;DHT22;9762;52.490;13.410;2022-09-24T03:02:49;15.80;86.80
19256;DHT22;9762;52.490;13.410;2022-09-24T03:05:15;15.80;86.90
19256;DHT22;9762;52.490;13.410;2022-09-24T03:07:45;15.80;87.10
19256;DHT22;9762;52.490;13.410;2022-09-24T03:10:10;15.80;87.30
19256;DHT22;9762;52.490;13.410;2022-09-24T03:12:37;15.80;87.20
19256;DHT22;9762;52.490;13.410;2022-09-24T03:15:03;15.70;87.10
19256;DHT22;9762;52.490;13.410;2022-09-24T03:17:29;15.70;87.20
19256;DHT22;9762;52.490;13.410;2022-09-24T03:19:55;15.70;87.60
19256;DHT22;9762;52.490;13.410;2022-09-24T03:22:20;15.70;88.00
19256;DHT22;9762;52.490;13.410;2022-09-24T03:24:46;15.70;88.00
19256;DHT22;9762;52.490;13.410;2022-09-24T03:27:11;15.70;89.00
19256;DHT22;9762;52.490;13.410;2022-09-24T03:29:37;15.60;88.30
19256;DHT22;9762;52.490;13.410;2022-09-24T03:32:21;15.60;88.20
19256;DHT22;9762;52.490;13.410;2022-09-24T03:34:46;15.60;88.20
19256;DHT22;9762;52.490;13.410;2022-09-24T03:37:12;15.60;88.00
19256;DHT22;9762;52.490;13.410;2022-09-24T03:39:38;15.60;88.10
19256;DHT22;9762;52.490;13.410;2022-09-24T03:42:03;15.60;88.20
19256;DHT22;9762;52.490;13.410;2022-09-24T03:44:29;15.60;88.40
19256;DHT22;9762;52.490;13.410;2022-09-24T03:46:54;15.60;88.30
19256;DHT22;9762;52.490;13.410;2022-09-24T03:49:21;15.50;88.50
19256;DHT22;9762;52.490;13.410;2022-09-24T03:51:48;15.50;88.60
19256;DHT22;9762;52.490;13.410;2022-09-24T03:54:14;15.50;88.60
19256;DHT22;9762;52.490;13.410;2022-09-24T03:56:41;15.50;88.90
19256;DHT22;9762;52.490;13.410;2022-09-24T03:59:09;15.50;88.80
19256;DHT22;9762;52.490;13.410;2022-09-24T04:01:34;15.50;88.80
19256;DHT22;9762;52.490;13.410;2022-09-24T04:04:02;15.60;88.80
19256;DHT22;9762;52.490;13.410;2022-09-24T04:06:28;15.50;88.90
19256;DHT22;9762;52.490;13.410;2022-09-24T04:08:54;15.50;88.90
19256;DHT22;9762;52.490;13.410;2022-09-24T04:11:20;15.50;89.10
19256;DHT22;9762;52.490;13.410;2022-09-24T04:13:46;15.50;89.10
19256;DHT22;9762;52.490;13.410;2022-09-24T04:16:11;15.50;89.10
19256;DHT22;9762;52.490;13.410;2022-09-24T04:18:37;15.50;89.20
19256;DHT22;9762;52.490;13.410;2022-09-24T04:21:04;15.50;89.40
19256;DHT22;9762;52.490;13.410;2022-09-24T04:23:29;15.50;89.50
19256;DHT22;9762;52.490;13.410;2022-09-24T04:25:56;15.50;89.50
19256;DHT22;9762;52.490;13.410;2022-09-24T04:28:21;15.50;89.60
19256;DHT22;9762;52.490;13.410;2022-09-24T04:30:47;15.50;89.70
19256;DHT22;9762;52.490;13.410;2022-09-24T04:33:13;15.50;90.00
19256;DHT22;9762;52.490;13.410;2022-09-24T04:35:38;15.50;90.00
19256;DHT22;9762;52.490;13.410;2022-09-24T04:38:04;15.50;90.00
19256;DHT22;9762;52.490;13.410;2022-09-24T04:40:30;15.50;90.00
19256;DHT22;9762;52.490;13.410;2022-09-24T04:42:56;15.50;90.10
19256;DHT22;9762;52.490;13.410;2022-09-24T04:45:22;15.50;90.10
19256;DHT22;9762;52.490;13.410;2022-09-24T04:47:50;15.50;90.20
19256;DHT22;9762;52.490;13.410;2022-09-24T04:50:19;15.50;90.20
19256;DHT22;9762;52.490;13.410;2022-09-24T04:52:44;15.50;90.30
19256;DHT22;9762;52.490;13.410;2022-09-24T04:55:10;15.50;90.20
19256;DHT22;9762;52.490;13.410;2022-09-24T04:57:35;15.50;90.20
19256;DHT22;9762;52.490;13.410;2022-09-24T05:00:07;15.50;90.20
19256;DHT22;9762;52.490;13.410;2022-09-24T05:02:35;15.40;90.50
19256;DHT22;9762;52.490;13.410;2022-09-24T05:05:01;15.40;90.20
19256;DHT22;9762;52.490;13.410;2022-09-24T05:07:27;15.40;90.30
19256;DHT22;9762;52.490;13.410;2022-09-24T05:09:52;15.40;90.30
19256;DHT22;9762;52.490;13.410;2022-09-24T05:12:18;15.40;90.40
19256;DHT22;9762;52.490;13.410;2022-09-24T05:14:44;15.40;90.40
19256;DHT22;9762;52.490;13.410;2022-09-24T05:17:10;15.40;90.40
19256;DHT22;9762;52.490;13.410;2022-09-24T05:19:35;15.40;90.40
19256;DHT22;9762;52.490;13.410;2022-09-24T05:22:01;15.40;90.40
19256;DHT22;9762;52.490;13.410;2022-09-24T05:24:26;15.40;90.30
19256;DHT22;9762;52.490;13.410;2022-09-24T05:26:52;15.40;90.30
19256;DHT22;9762;52.490;13.410;2022-09-24T05:29:39;15.40;90.30
19256;DHT22;9762;52.490;13.410;2022-09-24T05:32:07;15.40;90.30
19256;DHT22;9762;52.490;13.410;2022-09-24T05:34:33;15.40;90.40
19256;DHT22;9762;52.490;13.410;2022-09-24T05:37:00;15.50;90.50
19256;DHT22;9762;52.490;13.410;2022-09-24T05:39:26;15.50;90.50
19256;DHT22;9762;52.490;13.410;2022-09-24T05:41:52;15.50;90.50
19256;DHT22;9762;52.490;13.410;2022-09-24T05:44:17;15.50;90.50
19256;DHT22;9762;52.490;13.410;2022-09-24T05:46:45;15.50;90.60
19256;DHT22;9762;52.490;13.410;2022-09-24T05:49:10;15.50;90.60
19256;DHT22;9762;52.490;13.410;2022-09-24T05:51:36;15.60;90.60
19256;DHT22;9762;52.490;13.410;2022-09-24T05:54:02;15.60;90.60
19256;DHT22;9762;52.490;13.410;2022-09-24T05:56:27;15.60;90.60
19256;DHT22;9762;52.490;13.410;2022-09-24T05:58:53;15.60;90.50
19256;DHT22;9762;52.490;13.410;2022-09-24T06:01:19;15.60;90.50
19256;DHT22;9762;52.490;13.410;2022-09-24T06:03:44;15.70;90.70
19256;DHT22;9762;52.490;13.410;2022-09-24T06:06:10;15.70;90.60
19256;DHT22;9762;52.490;13.410;2022-09-24T06:08:36;15.70;90.60
19256;DHT22;9762;52.490;13.410;2022-09-24T06:11:03;15.70;90.50
19256;DHT22;9762;52.490;13.410;2022-09-24T06:13:30;15.80;90.40
19256;DHT22;9762;52.490;13.410;2022-09-24T06:16:06;15.80;90.30
19256;DHT22;9762;52.490;13.410;2022-09-24T06:18:34;15.90;90.20
19256;DHT22;9762;52.490;13.410;2022-09-24T06:21:03;15.80;90.10
19256;DHT22;9762;52.490;13.410;2022-09-24T06:23:31;15.90;90.20
19256;DHT22;9762;52.490;13.410;2022-09-24T06:25:57;15.80;90.20
19256;DHT22;9762;52.490;13.410;2022-09-24T06:28:22;15.90;90.10
19256;DHT22;9762;52.490;13.410;2022-09-24T06:30:50;15.90;90.10
19256;DHT22;9762;52.490;13.410;2022-09-24T06:33:16;15.90;90.10
19256;DHT22;9762;52.490;13.410;2022-09-24T06:35:42;15.90;90.10
19256;DHT22;9762;52.490;13.410;2022-09-24T06:38:10;16.00;90.10
19256;DHT22;9762;52.490;13.410;2022-09-24T06:40:37;16.00;90.10
19256;DHT22;9762;52.490;13.410;2022-09-24T06:43:04;16.00;90.10
19256;DHT22;9762;52.490;13.410;2022-09-24T06:45:31;16.00;90.10
19256;DHT22;9762;52.490;13.410;2022-09-24T06:47:58;16.10;90.20
19256;DHT22;9762;52.490;13.410;2022-09-24T06:50:26;16.10;90.20
19256;DHT22;9762;52.490;13.410;2022-09-24T06:52:53;16.20;90.30
19256;DHT22;9762;52.490;13.410;2022-09-24T06:55:19;16.20;90.20
19256;DHT22;9762;52.490;13.410;2022-09-24T06:57:44;16.20;90.10
19256;DHT22;9762;52.490;13.410;2022-09-24T07:00:11;16.30;90.10
19256;DHT22;9762;52.490;13.410;2022-09-24T07:02:38;16.30;90.10
19256;DHT22;9762;52.490;13.410;2022-09-24T07:05:04;16.40;90.00
19256;DHT22;9762;52.490;13.410;2022-09-24T07:07:30;16.40;90.00
19256;DHT22;9762;52.490;13.410;2022-09-24T07:10:00;16.50;90.00
19256;DHT22;9762;52.490;13.410;2022-09-24T07:12:29;16.50;89.60
19256;DHT22;9762;52.490;13.410;2022-09-24T07:14:55;16.50;89.40
19256;DHT22;9762;52.490;13.410;2022-09-24T07:17:21;16.50;89.20
19256;DHT22;9762;52.490;13.410;2022-09-24T07:19:47;16.50;89.40
19256;DHT22;9762;52.490;13.410;2022-09-24T07:22:12;16.60;89.30
19256;DHT22;9762;52.490;13.410;2022-09-24T07:24:38;16.60;88.90
19256;DHT22;9762;52.490;13.410;2022-09-24T07:27:05;16.60;88.90
19256;DHT22;9762;52.490;13.410;2022-09-24T07:29:30;16.60;89.00
19256;DHT22;9762;52.490;13.410;2022-09-24T07:31:56;16.60;89.20
19256;DHT22;9762;52.490;13.410;2022-09-24T07:34:22;16.60;88.80
19256;DHT22;9762;52.490;13.410;2022-09-24T07:36:47;16.70;89.10
19256;DHT22;9762;52.490;13.410;2022-09-24T07:39:13;16.70;89.10
19256;DHT22;9762;52.490;13.410;2022-09-24T07:41:39;16.70;88.90
19256;DHT22;9762;52.490;13.410;2022-09-24T07:44:05;16.70;88.90
19256;DHT22;9762;52.490;13.410;2022-09-24T07:46:32;16.70;88.80
19256;DHT22;9762;52.490;13.410;2022-09-24T07:48:57;16.80;88.70
19256;DHT22;9762;52.490;13.410;2022-09-24T07:51:24;16.80;88.70
19256;DHT22;9762;52.490;13.410;2022-09-24T07:53:51;16.80;88.40
19256;DHT22;9762;52.490;13.410;2022-09-24T07:56:17;16.80;88.40
19256;DHT22;9762;52.490;13.410;2022-09-24T07:58:47;16.90;88.10
19256;DHT22;9762;52.490;13.410;2022-09-24T08:01:13;16.90;88.10
19256;DHT22;9762;52.490;13.410;2022-09-24T08:06:06;17.00;87.10
19256;DHT22;9762;52.490;13.410;2022-09-24T08:08:31;17.00;87.60
19256;DHT22;9762;52.490;13.410;2022-09-24T08:11:02;17.00;87.40
19256;DHT22;9762;52.490;13.410;2022-09-24T08:13:28;17.10;86.90
19256;DHT22;9762;52.490;13.410;2022-09-24T08:15:57;17.00;86.80
19256;DHT22;9762;52.490;13.410;2022-09-24T08:18:27;17.00;86.80
19256;DHT22;9762;52.490;13.410;2022-09-24T08:20:54;17.00;86.90
19256;DHT22;9762;52.490;13.410;2022-09-24T08:23:19;17.00;87.00
19256;DHT22;9762;52.490;13.410;2022-09-24T08:25:46;17.00;87.20
19256;DHT22;9762;52.490;13.410;2022-09-24T08:28:12;17.00;87.40
19256;DHT22;9762;52.490;13.410;2022-09-24T08:30:41;17.10;87.40
19256;DHT22;9762;52.490;13.410;2022-09-24T08:33:08;17.10;87.70
19256;DHT22;9762;52.490;13.410;2022-09-24T08:35:34;17.10;86.90
19256;DHT22;9762;52.490;13.410;2022-09-24T08:38:01;17.20;87.00
19256;DHT22;9762;52.490;13.410;2022-09-24T08:40:30;17.20;87.10
19256;DHT22;9762;52.490;13.410;2022-09-24T08:45:40;17.30;86.50
19256;DHT22;9762;52.490;13.410;2022-09-24T08:48:29;17.40;86.40
19256;DHT22;9762;52.490;13.410;2022-09-24T08:51:06;17.40;85.80
19256;DHT22;9762;52.490;13.410;2022-09-24T08:53:43;17.40;85.60
19256;DHT22;9762;52.490;13.410;2022-09-24T08:56:11;17.50;85.80
19256;DHT22;9762;52.490;13.410;2022-09-24T09:03:51;17.60;85.20
19256;DHT22;9762;52.490;13.410;2022-09-24T09:11:48;17.70;85.40
19256;DHT22;9762;52.490;13.410;2022-09-24T09:14:40;17.80;85.30
19256;DHT22;9762;52.490;13.410;2022-09-24T09:19:57;17.90;84.80
19256;DHT22;9762;52.490;13.410;2022-09-24T09:22:29;18.00;84.50
19256;DHT22;9762;52.490;13.410;2022-09-24T09:25:00;18.10;84.50
19256;DHT22;9762;52.490;13.410;2022-09-24T09:27:26;18.20;84.50
19256;DHT22;9762;52.490;13.410;2022-09-24T09:29:56;18.30;84.20
19256;DHT22;9762;52.490;13.410;2022-09-24T09:32:39;18.40;83.80
19256;DHT22;9762;52.490;13.410;2022-09-24T09:35:23;18.40;83.50
19256;DHT22;9762;52.490;13.410;2022-09-24T09:41:14;18.50;82.70
19256;DHT22;9762;52.490;13.410;2022-09-24T09:43:36;18.60;82.20
19256;DHT22;9762;52.490;13.410;2022-09-24T09:46:19;18.70;82.30
19256;DHT22;9762;52.490;13.410;2022-09-24T09:48:50;18.70;82.40
19256;DHT22;9762;52.490;13.410;2022-09-24T09:51:21;18.80;82.10
19256;DHT22;9762;52.490;13.410;2022-09-24T09:54:07;18.80;82.10
19256;DHT22;9762;52.490;13.410;2022-09-24T09:56:44;18.90;81.80
19256;DHT22;9762;52.490;13.410;2022-09-24T10:01:41;19.00;81.50
19256;DHT22;9762;52.490;13.410;2022-09-24T10:04:36;19.00;81.30
19256;DHT22;9762;52.490;13.410;2022-09-24T10:07:09;19.10;80.80
19256;DHT22;9762;52.490;13.410;2022-09-24T10:09:35;19.10;80.60
19256;DHT22;9762;52.490;13.410;2022-09-24T10:14:40;19.20;80.40
19256;DHT22;9762;52.490;13.410;2022-09-24T10:17:05;19.30;81.10
19256;DHT22;9762;52.490;13.410;2022-09-24T10:19:35;19.40;80.80
19256;DHT22;9762;52.490;13.410;2022-09-24T10:22:09;19.50;80.70
19256;DHT22;9762;52.490;13.410;2022-09-24T10:24:41;19.50;80.40
19256;DHT22;9762;52.490;13.410;2022-09-24T10:27:11;19.60;80.40
19256;DHT22;9762;52.490;13.410;2022-09-24T10:29:38;19.60;79.60
19256;DHT22;9762;52.490;13.410;2022-09-24T10:32:24;19.70;79.10
19256;DHT22;9762;52.490;13.410;2022-09-24T10:37:53;19.70;78.70
19256;DHT22;9762;52.490;13.410;2022-09-24T10:40:25;19.70;78.90
19256;DHT22;9762;52.490;13.410;2022-09-24T10:43:00;19.70;78.80
19256;DHT22;9762;52.490;13.410;2022-09-24T10:51:26;19.80;78.90
19256;DHT22;9762;52.490;13.410;2022-09-24T10:56:37;19.70;78.70
19256;DHT22;9762;52.490;13.410;2022-09-24T11:01:42;19.80;78.70
19256;DHT22;9762;52.490;13.410;2022-09-24T11:04:17;19.90;78.90
19256;DHT22;9762;52.490;13.410;2022-09-24T11:07:13;20.00;78.90
19256;DHT22;9762;52.490;13.410;2022-09-24T11:13:03;20.10;77.30
19256;DHT22;9762;52.490;13.410;2022-09-24T11:21:52;20.40;77.10
19256;DHT22;9762;52.490;13.410;2022-09-24T11:24:46;20.40;76.40
19256;DHT22;9762;52.490;13.410;2022-09-24T11:28:08;20.50;76.50
19256;DHT22;9762;52.490;13.410;2022-09-24T11:39:35;21.00;74.80
19256;DHT22;9762;52.490;13.410;2022-09-24T11:45:04;21.10;73.60
19256;DHT22;9762;52.490;13.410;2022-09-24T11:55:41;21.20;72.00
19256;DHT22;9762;52.490;13.410;2022-09-24T11:58:29;21.20;71.50
19256;DHT22;9762;52.490;13.410;2022-09-24T12:01:11;21.20;71.20
19256;DHT22;9762;52.490;13.410;2022-09-24T12:06:11;21.10;72.50
19256;DHT22;9762;52.490;13.410;2022-09-24T12:08:53;21.10;73.10
19256;DHT22;9762;52.490;13.410;2022-09-24T12:11:35;21.00;73.20
19256;DHT22;9762;52.490;13.410;2022-09-24T12:14:12;21.00;73.90
19256;DHT22;9762;52.490;13.410;2022-09-24T12:16:41;21.00;73.70
19256;DHT22;9762;52.490;13.410;2022-09-24T12:19:31;21.00;74.10
19256;DHT22;9762;52.490;13.410;2022-09-24T12:21:58;20.90;74.20
19256;DHT22;9762;52.490;13.410;2022-09-24T12:24:53;20.90;74.60
19256;DHT22;9762;52.490;13.410;2022-09-24T12:27:23;20.80;74.80
19256;DHT22;9762;52.490;13.410;2022-09-24T12:33:25;20.80;74.90
19256;DHT22;9762;52.490;13.410;2022-09-24T12:36:22;20.80;74.80
19256;DHT22;9762;52.490;13.410;2022-09-24T12:38:52;20.80;74.70
19256;DHT22;9762;52.490;13.410;2022-09-24T12:41:28;20.80;74.80
19256;DHT22;9762;52.490;13.410;2022-09-24T12:46:51;21.00;75.20
19256;DHT22;9762;52.490;13.410;2022-09-24T12:51:51;21.00;75.80
19256;DHT22;9762;52.490;13.410;2022-09-24T12:54:27;21.00;76.30
19256;DHT22;9762;52.490;13.410;2022-09-24T12:57:13;21.00;76.60
19256;DHT22;9762;52.490;13.410;2022-09-24T13:02:25;21.00;77.00
19256;DHT22;9762;52.490;13.410;2022-09-24T13:07:28;21.00;77.00
19256;DHT22;9762;52.490;13.410;2022-09-24T13:09:54;21.00;77.00
19256;DHT22;9762;52.490;13.410;2022-09-24T13:12:22;21.00;77.20
19256;DHT22;9762;52.490;13.410;2022-09-24T13:14:59;21.00;77.40
19256;DHT22;9762;52.490;13.410;2022-09-24T13:17:28;21.00;76.50
19256;DHT22;9762;52.490;13.410;2022-09-24T13:19:57;21.00;76.20
19256;DHT22;9762;52.490;13.410;2022-09-24T13:22:33;21.00;75.90
19256;DHT22;9762;52.490;13.410;2022-09-24T13:27:36;21.00;76.00
19256;DHT22;9762;52.490;13.410;2022-09-24T13:30:18;21.00;75.90
19256;DHT22;9762;52.490;13.410;2022-09-24T13:32:58;21.10;76.00
19256;DHT22;9762;52.490;13.410;2022-09-24T13:35:27;21.10;76.00
19256;DHT22;9762;52.490;13.410;2022-09-24T13:38:19;21.20;75.80
19256;DHT22;9762;52.490;13.410;2022-09-24T13:40:59;21.30;75.20
19256;DHT22;9762;52.490;13.410;2022-09-24T13:46:20;21.30;74.50
19256;DHT22;9762;52.490;13.410;2022-09-24T13:48:56;21.30;74.20
19256;DHT22;9762;52.490;13.410;2022-09-24T13:51:28;21.30;73.60
19256;DHT22;9762;52.490;13.410;2022-09-24T13:54:24;21.30;73.60
19256;DHT22;9762;52.490;13.410;2022-09-24T13:56:59;21.30;73.80
19256;DHT22;9762;52.490;13.410;2022-09-24T13:59:26;21.40;73.90
19256;DHT22;9762;52.490;13.410;2022-09-24T14:01:52;21.50;73.70
19256;DHT22;9762;52.490;13.410;2022-09-24T14:04:19;21.50;73.30
19256;DHT22;9762;52.490;13.410;2022-09-24T14:06:51;21.60;73.10
19256;DHT22;9762;52.490;13.410;2022-09-24T14:09:34;21.60;73.10
19256;DHT22;9762;52.490;13.410;2022-09-24T14:12:14;21.60;73.00
19256;DHT22;9762;52.490;13.410;2022-09-24T14:14:45;21.60;73.20
19256;DHT22;9762;52.490;13.410;2022-09-24T14:17:13;21.60;73.10
19256;DHT22;9762;52.490;13.410;2022-09-24T14:19:39;21.50;72.70
19256;DHT22;9762;52.490;13.410;2022-09-24T14:22:11;21.50;72.60
19256;DHT22;9762;52.490;13.410;2022-09-24T14:24:58;21.50;72.80
19256;DHT22;9762;52.490;13.410;2022-09-24T14:27:25;21.50;72.60
19256;DHT22;9762;52.490;13.410;2022-09-24T14:30:05;21.40;72.60
19256;DHT22;9762;52.490;13.410;2022-09-24T14:32:34;21.40;73.00
19256;DHT22;9762;52.490;13.410;2022-09-24T14:37:56;21.30;73.30
19256;DHT22;9762;52.490;13.410;2022-09-24T14:40:24;21.20;73.80
19256;DHT22;9762;52.490;13.410;2022-09-24T14:42:55;21.20;74.00
19256;DHT22;9762;52.490;13.410;2022-09-24T14:45:28;21.20;74.30
19256;DHT22;9762;52.490;13.410;2022-09-24T14:48:05;21.10;74.40
19256;DHT22;9762;52.490;13.410;2022-09-24T14:50:39;21.00;74.70
19256;DHT22;9762;52.490;13.410;2022-09-24T14:53:28;21.00;74.70
19256;DHT22;9762;52.490;13.410;2022-09-24T14:55:54;21.00;74.60
19256;DHT22;9762;52.490;13.410;2022-09-24T14:58:32;21.00;74.40
19256;DHT22;9762;52.490;13.410;2022-09-24T15:01:04;21.00;74.50
19256;DHT22;9762;52.490;13.410;2022-09-24T15:03:40;20.90;74.50
19256;DHT22;9762;52.490;13.410;2022-09-24T15:06:29;20.90;74.70
19256;DHT22;9762;52.490;13.410;2022-09-24T15:12:15;20.90;74.40
19256;DHT22;9762;52.490;13.410;2022-09-24T15:14:56;20.80;74.40
19256;DHT22;9762;52.490;13.410;2022-09-24T15:17:23;20.70;74.70
19256;DHT22;9762;52.490;13.410;2022-09-24T15:19:49;20.70;74.90
19256;DHT22;9762;52.490;13.410;2022-09-24T15:22:19;20.70;75.20
19256;DHT22;9762;52.490;13.410;2022-09-24T15:24:49;20.60;75.30
19256;DHT22;9762;52.490;13.410;2022-09-24T15:29:45;20.50;76.00
19256;DHT22;9762;52.490;13.410;2022-09-24T15:32:18;20.50;76.30
19256;DHT22;9762;52.490;13.410;2022-09-24T15:34:45;20.40;76.60
19256;DHT22;9762;52.490;13.410;2022-09-24T15:37:13;20.40;76.70
19256;DHT22;9762;52.490;13.410;2022-09-24T15:39:39;20.40;77.20
19256;DHT22;9762;52.490;13.410;2022-09-24T15:42:10;20.30;77.60
19256;DHT22;9762;52.490;13.410;2022-09-24T15:44:36;20.20;77.60
19256;DHT22;9762;52.490;13.410;2022-09-24T15:47:01;20.20;77.60
19256;DHT22;9762;52.490;13.410;2022-09-24T15:49:27;20.20;77.60
19256;DHT22;9762;52.490;13.410;2022-09-24T15:51:58;20.10;77.80
19256;DHT22;9762;52.490;13.410;2022-09-24T15:54:24;20.10;78.10
19256;DHT22;9762;52.490;13.410;2022-09-24T15:56:50;20.00;78.20
19256;DHT22;9762;52.490;13.410;2022-09-24T15:59:17;20.10;78.50
19256;DHT22;9762;52.490;13.410;2022-09-24T16:01:44;20.10;78.50
19256;DHT22;9762;52.490;13.410;2022-09-24T16:04:10;20.10;78.40
19256;DHT22;9762;52.490;13.410;2022-09-24T16:06:36;20.10;78.30
19256;DHT22;9762;52.490;13.410;2022-09-24T16:09:02;20.00;78.50
19256;DHT22;9762;52.490;13.410;2022-09-24T16:11:28;20.00;79.00
19256;DHT22;9762;52.490;13.410;2022-09-24T16:13:54;19.90;79.10
19256;DHT22;9762;52.490;13.410;2022-09-24T16:16:19;19.90;79.30
19256;DHT22;9762;52.490;13.410;2022-09-24T16:18:45;19.90;79.60
19256;DHT22;9762;52.490;13.410;2022-09-24T16:21:10;19.80;79.60
19256;DHT22;9762;52.490;13.410;2022-09-24T16:23:36;19.80;79.60
19256;DHT22;9762;52.490;13.410;2022-09-24T16:26:02;19.80;79.60
19256;DHT22;9762;52.490;13.410;2022-09-24T16:28:28;19.70;79.80
19256;DHT22;9762;52.490;13.410;2022-09-24T16:30:54;19.70;80.00
19256;DHT22;9762;52.490;13.410;2022-09-24T16:33:20;19.60;80.20
19256;DHT22;9762;52.490;13.410;2022-09-24T16:35:46;19.60;80.40
19256;DHT22;9762;52.490;13.410;2022-09-24T16:38:11;19.60;80.90
19256;DHT22;9762;52.490;13.410;2022-09-24T16:40:37;19.50;81.10
19256;DHT22;9762;52.490;13.410;2022-09-24T16:43:03;19.50;81.60
19256;DHT22;9762;52.490;13.410;2022-09-24T16:45:30;19.40;81.90
19256;DHT22;9762;52.490;13.410;2022-09-24T16:47:56;19.40;81.90
19256;DHT22;9762;52.490;13.410;2022-09-24T16:50:21;19.50;82.10
19256;DHT22;9762;52.490;13.410;2022-09-24T16:52:48;19.50;82.20
19256;DHT22;9762;52.490;13.410;2022-09-24T16:55:15;19.50;82.40
19256;DHT22;9762;52.490;13.410;2022-09-24T16:57:40;19.50;82.40
19256;DHT22;9762;52.490;13.410;2022-09-24T17:00:07;19.50;82.40
19256;DHT22;9762;52.490;13.410;2022-09-24T17:02:34;19.50;82.90
19256;DHT22;9762;52.490;13.410;2022-09-24T17:05:00;19.40;83.00
19256;DHT22;9762;52.490;13.410;2022-09-24T17:07:32;19.40;83.00
19256;DHT22;9762;52.490;13.410;2022-09-24T17:09:58;19.40;83.00
19256;DHT22;9762;52.490;13.410;2022-09-24T17:12:58;19.40;82.90
19256;DHT22;9762;52.490;13.410;2022-09-24T17:15:23;19.30;83.10
19256;DHT22;9762;52.490;13.410;2022-09-24T17:17:49;19.30;83.20
19256;DHT22;9762;52.490;13.410;2022-09-24T17:20:15;19.30;83.20
19256;DHT22;9762;52.490;13.410;2022-09-24T17:22:40;19.30;83.30
19256;DHT22;9762;52.490;13.410;2022-09-24T17:25:07;19.30;83.20
19256;DHT22;9762;52.490;13.410;2022-09-24T17:27:33;19.20;83.20
19256;DHT22;9762;52.490;13.410;2022-09-24T17:30:02;19.20;83.30
19256;DHT22;9762;52.490;13.410;2022-09-24T17:32:28;19.10;83.50
19256;DHT22;9762;52.490;13.410;2022-09-24T17:34:54;19.10;83.50
19256;DHT22;9762;52.490;13.410;2022-09-24T17:37:20;19.10;83.50
19256;DHT22;9762;52.490;13.410;2022-09-24T17:39:45;19.10;83.50
19256;DHT22;9762;52.490;13.410;2022-09-24T17:42:11;19.00;84.20